createdAt,value
2023-05-18T00:00:35.353Z,7.79
2023-05-18T00:03:03.772Z,7.78
2023-05-18T00:05:34.753Z,7.73
2023-05-18T00:08:03.034Z,7.75
2023-05-18T00:10:33.225Z,7.73
2023-05-18T00:13:01.235Z,7.74
2023-05-18T00:15:29.470Z,7.72
2023-05-18T00:17:58.766Z,7.69
2023-05-18T00:20:27.856Z,7.70
2023-05-18T00:22:55.728Z,7.69
2023-05-18T00:25:23.825Z,7.67
2023-05-18T00:27:53.190Z,7.70
2023-05-18T00:30:21.624Z,7.71
2023-05-18T00:32:49.327Z,7.69
2023-05-18T00:35:17.785Z,7.72
2023-05-18T00:37:46.045Z,7.59
2023-05-18T00:40:14.465Z,7.52
2023-05-18T00:42:42.787Z,7.44
2023-05-18T00:45:12.483Z,7.35
2023-05-18T00:47:41.979Z,7.29
2023-05-18T00:50:11.300Z,7.30
2023-05-18T00:52:39.967Z,7.37
2023-05-18T00:55:09.271Z,7.37
2023-05-18T00:57:38.352Z,7.30
2023-05-18T01:00:11.180Z,7.35
2023-05-18T01:02:43.256Z,7.33
2023-05-18T01:05:12.243Z,7.32
2023-05-18T01:07:42.704Z,7.32
2023-05-18T01:10:11.838Z,7.30
2023-05-18T01:12:42.633Z,7.29
2023-05-18T01:15:14.918Z,7.29
2023-05-18T01:17:52.366Z,7.24
2023-05-18T01:20:33.704Z,7.20
2023-05-18T01:23:10.399Z,7.14
2023-05-18T01:25:47.423Z,7.15
2023-05-18T01:28:19.612Z,7.12
2023-05-18T01:30:47.828Z,7.15
2023-05-18T01:33:15.713Z,7.11
2023-05-18T01:35:48.571Z,7.11
2023-05-18T01:38:17.985Z,7.00
2023-05-18T01:40:49.840Z,6.97
2023-05-18T01:43:21.644Z,6.95
2023-05-18T01:45:51.712Z,6.95
2023-05-18T01:48:25.513Z,6.97
2023-05-18T01:50:56.736Z,6.98
2023-05-18T01:53:26.286Z,6.87
2023-05-18T01:55:55.265Z,6.90
2023-05-18T01:58:25.421Z,6.87
2023-05-18T02:00:53.702Z,6.79
2023-05-18T02:03:22.047Z,6.78
2023-05-18T02:05:50.304Z,6.80
2023-05-18T02:08:18.484Z,6.81
2023-05-18T02:10:46.624Z,6.72
2023-05-18T02:13:14.664Z,6.64
2023-05-18T02:15:45.435Z,6.65
2023-05-18T02:18:14.138Z,6.57
2023-05-18T02:20:42.003Z,6.62
2023-05-18T02:23:09.670Z,6.58
2023-05-18T02:25:37.984Z,6.57
2023-05-18T02:28:06.202Z,6.52
2023-05-18T02:30:34.561Z,6.48
2023-05-18T02:33:04.530Z,6.40
2023-05-18T02:35:32.867Z,6.42
2023-05-18T02:38:01.368Z,6.42
2023-05-18T02:40:29.294Z,6.37
2023-05-18T02:42:57.369Z,6.37
2023-05-18T02:45:26.329Z,6.34
2023-05-18T02:47:55.521Z,6.33
2023-05-18T02:50:24.983Z,6.35
2023-05-18T02:52:53.193Z,6.30
2023-05-18T02:55:21.240Z,6.33
2023-05-18T02:57:58.415Z,6.34
2023-05-18T03:00:49.620Z,6.39
2023-05-18T03:03:17.768Z,6.37
2023-05-18T03:05:48.456Z,6.33
2023-05-18T03:08:16.339Z,6.30
2023-05-18T03:10:45.644Z,6.37
2023-05-18T03:13:13.470Z,6.34
2023-05-18T03:15:41.333Z,6.29
2023-05-18T03:18:09.618Z,6.23
2023-05-18T03:20:37.976Z,6.25
2023-05-18T03:23:06.902Z,6.22
2023-05-18T03:25:37.662Z,6.19
2023-05-18T03:28:06.801Z,6.14
2023-05-18T03:30:35.712Z,6.06
2023-05-18T03:33:04.729Z,6.03
2023-05-18T03:35:34.066Z,6.05
2023-05-18T03:38:01.692Z,6.08
2023-05-18T03:40:30.980Z,6.03
2023-05-18T03:42:59.430Z,6.01
2023-05-18T03:45:27.971Z,5.97
2023-05-18T03:47:56.169Z,5.95
2023-05-18T03:50:25.106Z,6.00
2023-05-18T03:52:54.066Z,5.87
2023-05-18T03:55:22.249Z,5.77
2023-05-18T03:57:51.376Z,5.83
2023-05-18T04:00:20.410Z,5.81
2023-05-18T04:02:52.125Z,5.83
2023-05-18T04:05:24.419Z,5.82
2023-05-18T04:07:52.232Z,5.74
2023-05-18T04:10:21.411Z,5.80
2023-05-18T04:12:49.824Z,5.86
2023-05-18T04:15:19.122Z,5.85
2023-05-18T04:17:47.040Z,5.96
2023-05-18T04:20:15.490Z,6.07
2023-05-18T04:22:46.588Z,6.17
2023-05-18T04:25:15.140Z,6.20
2023-05-18T04:27:45.450Z,6.30
2023-05-18T04:30:14.547Z,6.44
2023-05-18T04:32:45.083Z,6.61
2023-05-18T04:35:13.540Z,6.90
2023-05-18T04:37:41.613Z,6.80
2023-05-18T04:40:14.384Z,6.83
2023-05-18T04:42:45.645Z,6.74
2023-05-18T04:45:16.076Z,6.85
2023-05-18T04:47:47.085Z,6.99
2023-05-18T04:50:16.521Z,7.19
2023-05-18T04:52:49.102Z,7.22
2023-05-18T04:55:25.693Z,7.32
2023-05-18T04:57:56.659Z,7.49
2023-05-18T05:00:26.385Z,7.45
2023-05-18T05:02:59.229Z,7.73
2023-05-18T05:05:27.869Z,7.52
2023-05-18T05:07:58.328Z,7.56
2023-05-18T05:10:28.167Z,7.81
2023-05-18T05:12:56.456Z,7.86
2023-05-18T05:15:25.527Z,7.83
2023-05-18T05:17:53.801Z,8.49
2023-05-18T05:20:23.122Z,8.81
2023-05-18T05:22:51.058Z,8.79
2023-05-18T05:25:24.284Z,8.80
2023-05-18T05:27:52.363Z,8.95
2023-05-18T05:30:22.520Z,9.12
2023-05-18T05:32:51.238Z,8.70
2023-05-18T05:35:19.944Z,9.01
2023-05-18T05:37:50.389Z,9.15
2023-05-18T05:40:18.775Z,9.10
2023-05-18T05:42:47.667Z,9.39
2023-05-18T05:45:15.554Z,9.67
2023-05-18T05:47:57.324Z,9.68
2023-05-18T05:50:26.427Z,9.67
2023-05-18T05:53:00.215Z,9.79
2023-05-18T05:55:29.779Z,9.93
2023-05-18T05:57:57.897Z,9.72
2023-05-18T06:00:27.795Z,9.54
2023-05-18T06:03:01.215Z,10.27
2023-05-18T06:05:34.899Z,10.50
2023-05-18T06:08:05.709Z,10.80
2023-05-18T06:10:33.982Z,10.69
2023-05-18T06:13:02.408Z,11.04
2023-05-18T06:15:41.235Z,11.10
2023-05-18T06:18:10.854Z,11.60
2023-05-18T06:20:40.271Z,11.89
2023-05-18T06:23:09.883Z,12.07
2023-05-18T06:25:56.257Z,12.08
2023-05-18T06:28:43.268Z,12.08
2023-05-18T06:31:22.700Z,11.31
2023-05-18T06:34:00.267Z,11.18
2023-05-18T06:36:28.354Z,12.21
2023-05-18T06:38:59.298Z,12.66
2023-05-18T06:41:27.688Z,12.94
2023-05-18T06:43:55.423Z,13.17
2023-05-18T06:46:24.109Z,13.54
2023-05-18T06:48:56.798Z,13.46
2023-05-18T06:51:25.738Z,13.71
2023-05-18T06:53:56.097Z,13.40
2023-05-18T06:56:26.427Z,13.74
2023-05-18T06:58:57.324Z,13.81
2023-05-18T07:01:26.339Z,14.38
2023-05-18T07:03:57.793Z,13.76
2023-05-18T07:06:26.012Z,13.79
2023-05-18T07:08:53.753Z,13.46
2023-05-18T07:11:22.159Z,13.35
2023-05-18T07:13:51.422Z,14.55
2023-05-18T07:16:19.067Z,15.14
2023-05-18T07:18:46.989Z,15.10
2023-05-18T07:21:14.785Z,14.82
2023-05-18T07:23:42.573Z,15.50
2023-05-18T07:26:12.071Z,15.56
2023-05-18T07:28:40.425Z,15.67
2023-05-18T07:31:09.654Z,15.29
2023-05-18T07:33:40.436Z,14.36
2023-05-18T07:36:09.193Z,14.75
2023-05-18T07:38:37.180Z,15.16
2023-05-18T07:41:05.135Z,16.34
2023-05-18T07:43:33.023Z,16.74
2023-05-18T07:46:00.768Z,16.51
2023-05-18T07:48:29.955Z,17.09
2023-05-18T07:50:58.340Z,18.58
2023-05-18T07:53:26.259Z,16.67
2023-05-18T07:55:54.102Z,17.85
2023-05-18T07:58:21.891Z,18.05
2023-05-18T08:00:49.876Z,16.94
2023-05-18T08:03:18.669Z,16.00
2023-05-18T08:05:47.920Z,17.41
2023-05-18T08:08:16.157Z,16.48
2023-05-18T08:10:44.074Z,17.36
2023-05-18T08:13:11.915Z,18.17
2023-05-18T08:15:41.037Z,19.38
2023-05-18T08:18:09.139Z,19.12
2023-05-18T08:20:37.309Z,20.11
2023-05-18T08:23:06.811Z,19.79
2023-05-18T08:25:35.022Z,19.85
2023-05-18T08:28:03.158Z,20.84
2023-05-18T08:30:31.653Z,21.25
2023-05-18T08:32:59.867Z,21.28
2023-05-18T08:35:27.919Z,21.51
2023-05-18T08:37:59.273Z,21.17
2023-05-18T08:40:34.009Z,21.07
2023-05-18T08:43:04.887Z,20.85
2023-05-18T08:45:37.122Z,19.08
2023-05-18T08:48:06.713Z,19.59
2023-05-18T08:50:35.047Z,20.45
2023-05-18T08:53:04.030Z,21.62
2023-05-18T08:55:37.388Z,21.64
2023-05-18T08:58:08.314Z,21.39
2023-05-18T09:00:37.063Z,21.32
2023-05-18T09:03:06.432Z,20.61
2023-05-18T09:05:35.170Z,20.01
2023-05-18T09:08:03.966Z,18.59
2023-05-18T09:10:33.874Z,17.80
2023-05-18T09:13:02.976Z,18.50
2023-05-18T09:15:31.313Z,17.51
2023-05-18T09:17:59.657Z,17.94
2023-05-18T09:20:27.548Z,18.77
2023-05-18T09:22:55.335Z,18.67
2023-05-18T09:25:24.970Z,20.42
2023-05-18T09:27:55.760Z,18.97
2023-05-18T09:30:23.445Z,16.65
2023-05-18T09:32:51.315Z,16.85
2023-05-18T09:35:19.463Z,16.00
2023-05-18T09:37:47.909Z,17.26
2023-05-18T09:40:16.763Z,18.00
2023-05-18T09:42:46.171Z,18.98
2023-05-18T09:45:19.693Z,19.87
2023-05-18T09:47:50.622Z,20.03
2023-05-18T09:50:20.075Z,20.50
2023-05-18T09:52:49.816Z,20.86
2023-05-18T09:55:18.377Z,20.42
2023-05-18T09:57:46.885Z,19.28
2023-05-18T10:00:17.336Z,18.17
2023-05-18T10:02:48.786Z,19.20
2023-05-18T10:05:20.565Z,20.30
2023-05-18T10:07:48.552Z,20.76
2023-05-18T10:10:18.574Z,21.53
2023-05-18T10:12:46.532Z,23.07
2023-05-18T10:15:16.240Z,23.64
2023-05-18T10:17:44.759Z,23.12
2023-05-18T10:20:16.594Z,22.66
2023-05-18T10:22:46.426Z,22.92
2023-05-18T10:25:16.549Z,25.60
2023-05-18T10:27:45.462Z,25.01
2023-05-18T10:30:15.364Z,21.75
2023-05-18T10:32:43.868Z,19.00
2023-05-18T10:35:11.951Z,18.58
2023-05-18T10:37:42.271Z,20.46
2023-05-18T10:40:11.503Z,22.76
2023-05-18T10:42:39.474Z,24.13
2023-05-18T10:45:08.689Z,23.96
2023-05-18T10:47:39.455Z,23.30
2023-05-18T10:50:08.181Z,21.00
2023-05-18T10:52:37.619Z,20.86
2023-05-18T10:55:07.438Z,19.19
2023-05-18T10:57:38.175Z,19.89
2023-05-18T11:00:07.815Z,19.32
2023-05-18T11:02:35.860Z,18.42
2023-05-18T11:05:06.357Z,19.26
2023-05-18T11:07:35.089Z,18.98
2023-05-18T11:10:03.451Z,20.26
2023-05-18T11:12:34.141Z,21.51
2023-05-18T11:15:01.957Z,20.90
2023-05-18T11:17:30.669Z,20.67
2023-05-18T11:20:14.402Z,21.16
2023-05-18T11:22:44.058Z,23.27
2023-05-18T11:25:32.127Z,24.04
2023-05-18T11:28:02.550Z,25.87
2023-05-18T11:30:30.747Z,25.02
2023-05-18T11:33:09.645Z,24.13
2023-05-18T11:35:55.011Z,21.56
2023-05-18T11:38:23.496Z,21.16
2023-05-18T11:40:52.000Z,25.06
2023-05-18T11:43:22.433Z,27.42
2023-05-18T11:45:53.608Z,28.95
2023-05-18T11:48:22.721Z,31.84
2023-05-18T11:50:54.943Z,29.24
2023-05-18T11:53:24.212Z,28.89
2023-05-18T11:55:53.593Z,23.99
2023-05-18T11:58:25.403Z,21.93
2023-05-18T12:00:54.205Z,20.75
2023-05-18T12:03:25.014Z,24.04
2023-05-18T12:05:53.367Z,22.15
2023-05-18T12:08:21.858Z,22.92
2023-05-18T12:10:50.724Z,24.18
2023-05-18T12:13:19.169Z,21.00
2023-05-18T12:15:48.502Z,24.04
2023-05-18T12:18:20.033Z,25.53
2023-05-18T12:20:51.657Z,27.32
2023-05-18T12:23:19.697Z,28.82
2023-05-18T12:25:48.796Z,28.85
2023-05-18T12:28:18.463Z,29.20
2023-05-18T12:30:46.662Z,29.25
2023-05-18T12:33:16.177Z,26.63
2023-05-18T12:35:44.528Z,24.59
2023-05-18T12:38:12.482Z,26.69
2023-05-18T12:40:46.770Z,26.07
2023-05-18T12:43:14.738Z,25.95
2023-05-18T12:45:45.105Z,27.67
2023-05-18T12:48:13.835Z,29.52
2023-05-18T12:50:48.910Z,27.96
2023-05-18T12:53:18.277Z,25.07
2023-05-18T12:55:48.342Z,21.72
2023-05-18T12:58:19.197Z,20.83
2023-05-18T13:00:48.261Z,22.10
2023-05-18T13:03:16.898Z,21.44
2023-05-18T13:05:46.303Z,25.15
2023-05-18T13:08:18.115Z,28.35
2023-05-18T13:10:47.039Z,25.63
2023-05-18T13:13:18.902Z,24.05
2023-05-18T13:15:47.175Z,21.49
2023-05-18T13:18:15.850Z,24.83
2023-05-18T13:20:48.538Z,27.63
2023-05-18T13:23:18.971Z,29.80
2023-05-18T13:25:47.610Z,29.74
2023-05-18T13:28:17.010Z,32.30
2023-05-18T13:30:45.541Z,31.37
2023-05-18T13:33:13.484Z,29.65
2023-05-18T13:35:42.695Z,28.06
2023-05-18T13:38:10.695Z,24.96
2023-05-18T13:40:40.359Z,22.74
2023-05-18T13:43:09.491Z,22.96
2023-05-18T13:45:38.867Z,28.03
2023-05-18T13:48:10.055Z,29.58
2023-05-18T13:50:38.603Z,33.00
2023-05-18T13:53:07.087Z,35.32
2023-05-18T13:55:35.377Z,32.11
2023-05-18T13:58:04.801Z,28.77
2023-05-18T14:00:34.122Z,29.79
2023-05-18T14:03:03.001Z,29.69
2023-05-18T14:05:30.885Z,25.95
2023-05-18T14:07:59.430Z,22.33
2023-05-18T14:10:27.471Z,25.54
2023-05-18T14:12:55.913Z,24.17
2023-05-18T14:15:25.779Z,25.76
2023-05-18T14:17:54.086Z,25.54
2023-05-18T14:20:22.220Z,27.32
2023-05-18T14:22:50.438Z,29.57
2023-05-18T14:25:18.651Z,29.81
2023-05-18T14:27:46.626Z,30.21
2023-05-18T14:30:14.922Z,32.92
2023-05-18T14:32:44.219Z,35.08
2023-05-18T14:35:12.758Z,30.19
2023-05-18T14:37:41.356Z,28.54
2023-05-18T14:40:09.894Z,28.48
2023-05-18T14:42:37.835Z,24.31
2023-05-18T14:45:06.140Z,22.19
2023-05-18T14:47:34.195Z,21.75
2023-05-18T14:50:04.028Z,23.63
2023-05-18T14:52:31.929Z,24.59
2023-05-18T14:55:00.156Z,24.20
2023-05-18T14:57:28.818Z,27.00
2023-05-18T14:59:56.668Z,28.46
2023-05-18T15:02:24.933Z,25.83
2023-05-18T15:04:53.390Z,22.48
2023-05-18T15:07:23.251Z,20.84
2023-05-18T15:09:51.029Z,22.75
2023-05-18T15:12:19.888Z,22.75
2023-05-18T15:14:47.863Z,26.25
2023-05-18T15:17:16.093Z,25.81
2023-05-18T15:19:44.239Z,25.88
2023-05-18T15:22:12.423Z,26.12
2023-05-18T15:24:41.836Z,28.15
2023-05-18T15:27:10.436Z,30.03
2023-05-18T15:29:38.189Z,30.24
2023-05-18T15:32:06.614Z,25.31
2023-05-18T15:34:35.424Z,23.27
2023-05-18T15:37:03.766Z,21.93
2023-05-18T15:39:31.635Z,21.76
2023-05-18T15:42:00.877Z,21.41
2023-05-18T15:44:29.848Z,20.81
2023-05-18T15:46:58.009Z,22.72
2023-05-18T15:49:26.506Z,25.51
2023-05-18T15:51:54.480Z,28.00
2023-05-18T15:54:22.919Z,30.51
2023-05-18T15:56:51.206Z,31.25
2023-05-18T15:59:20.950Z,30.18
2023-05-18T16:01:48.975Z,29.17
2023-05-18T16:04:17.145Z,27.22
2023-05-18T16:06:45.265Z,25.95
2023-05-18T16:09:13.105Z,25.18
2023-05-18T16:11:41.065Z,26.96
2023-05-18T16:14:09.073Z,26.70
2023-05-18T16:16:38.823Z,24.99
2023-05-18T16:19:07.569Z,24.49
2023-05-18T16:21:35.724Z,25.46
2023-05-18T16:24:03.660Z,22.98
2023-05-18T16:26:31.924Z,22.07
2023-05-18T16:28:59.759Z,22.33
2023-05-18T16:31:27.913Z,22.34
2023-05-18T16:33:57.793Z,22.72
2023-05-18T16:36:26.532Z,23.56
2023-05-18T16:38:54.783Z,22.91
2023-05-18T16:41:23.319Z,24.05
2023-05-18T16:43:51.182Z,23.91
2023-05-18T16:46:20.154Z,22.66
2023-05-18T16:48:48.265Z,22.51
2023-05-18T16:51:18.943Z,23.77
2023-05-18T16:53:47.169Z,21.97
2023-05-18T16:56:15.714Z,22.24
2023-05-18T16:58:43.640Z,22.11
2023-05-18T17:01:26.256Z,21.65
2023-05-18T17:03:56.683Z,19.98
2023-05-18T17:06:26.645Z,20.91
2023-05-18T17:08:58.303Z,20.89
2023-05-18T17:11:27.918Z,20.00
2023-05-18T17:13:56.400Z,21.31
2023-05-18T17:16:26.601Z,20.90
2023-05-18T17:18:56.134Z,20.80
2023-05-18T17:21:26.715Z,20.38
2023-05-18T17:23:56.117Z,20.48
2023-05-18T17:26:25.597Z,20.49
2023-05-18T17:28:53.581Z,20.89
2023-05-18T17:31:21.583Z,20.64
2023-05-18T17:33:49.884Z,20.36
2023-05-18T17:36:18.223Z,20.09
2023-05-18T17:38:47.277Z,19.59
2023-05-18T17:41:16.579Z,19.81
2023-05-18T17:43:44.653Z,20.09
2023-05-18T17:46:13.052Z,19.49
2023-05-18T17:48:40.870Z,19.72
2023-05-18T17:51:09.117Z,19.98
2023-05-18T17:53:41.915Z,19.84
2023-05-18T17:56:11.127Z,19.32
2023-05-18T17:58:40.699Z,19.56
2023-05-18T18:01:08.970Z,19.18
2023-05-18T18:03:37.590Z,19.14
2023-05-18T18:06:05.691Z,19.15
2023-05-18T18:08:33.957Z,19.00
2023-05-18T18:11:01.856Z,18.37
2023-05-18T18:13:30.106Z,18.48
2023-05-18T18:15:59.609Z,18.66
2023-05-18T18:18:27.994Z,18.23
2023-05-18T18:20:55.771Z,18.26
2023-05-18T18:23:23.605Z,17.92
2023-05-18T18:25:51.658Z,17.78
2023-05-18T18:28:19.810Z,17.76
2023-05-18T18:30:47.937Z,17.39
2023-05-18T18:33:17.274Z,17.40
2023-05-18T18:35:45.404Z,17.07
2023-05-18T18:38:14.085Z,16.93
2023-05-18T18:40:42.213Z,16.74
2023-05-18T18:43:10.065Z,16.75
2023-05-18T18:45:40.373Z,16.46
2023-05-18T18:48:09.136Z,16.38
2023-05-18T18:50:38.960Z,16.33
2023-05-18T18:53:06.851Z,16.26
2023-05-18T18:55:35.073Z,16.12
2023-05-18T18:58:03.100Z,15.97
2023-05-18T19:00:31.460Z,15.87
2023-05-18T19:02:59.725Z,15.77
2023-05-18T19:05:28.492Z,15.70
2023-05-18T19:07:58.056Z,15.64
2023-05-18T19:10:26.100Z,15.52
2023-05-18T19:12:54.790Z,15.46
2023-05-18T19:15:22.700Z,15.41
2023-05-18T19:17:54.056Z,15.27
2023-05-18T19:20:23.585Z,15.25
2023-05-18T19:22:53.626Z,15.14
2023-05-18T19:25:25.056Z,15.07
2023-05-18T19:27:53.471Z,15.06
2023-05-18T19:30:22.695Z,14.95
2023-05-18T19:32:51.776Z,14.83
2023-05-18T19:35:20.276Z,14.75
2023-05-18T19:37:48.667Z,14.68
2023-05-18T19:40:17.356Z,14.61
2023-05-18T19:42:47.511Z,14.48
2023-05-18T19:45:16.427Z,14.43
2023-05-18T19:47:44.819Z,14.40
2023-05-18T19:50:13.753Z,14.24
2023-05-18T19:52:42.271Z,14.19
2023-05-18T19:55:10.995Z,14.18
2023-05-18T19:57:39.824Z,14.15
2023-05-18T20:00:11.170Z,14.11
2023-05-18T20:02:42.105Z,14.07
2023-05-18T20:05:12.835Z,14.09
2023-05-18T20:07:41.213Z,13.97
2023-05-18T20:10:09.618Z,13.93
2023-05-18T20:12:38.132Z,13.89
2023-05-18T20:15:07.458Z,13.88
2023-05-18T20:17:37.801Z,13.75
2023-05-18T20:20:06.488Z,13.72
2023-05-18T20:22:34.852Z,13.63
2023-05-18T20:25:06.246Z,13.60
2023-05-18T20:27:35.544Z,13.54
2023-05-18T20:30:03.971Z,13.53
2023-05-18T20:32:33.638Z,13.50
2023-05-18T20:35:03.944Z,13.42
2023-05-18T20:37:34.224Z,13.35
2023-05-18T20:40:03.107Z,13.25
2023-05-18T20:42:32.071Z,13.23
2023-05-18T20:44:59.782Z,13.18
2023-05-18T20:47:29.780Z,13.12
2023-05-18T20:49:58.978Z,13.08
2023-05-18T20:52:29.097Z,13.08
2023-05-18T20:54:56.895Z,12.91
2023-05-18T20:57:24.679Z,12.94
2023-05-18T20:59:52.717Z,12.94
2023-05-18T21:02:20.853Z,12.89
2023-05-18T21:04:48.992Z,12.87
2023-05-18T21:07:18.026Z,12.86
2023-05-18T21:09:47.579Z,12.77
2023-05-18T21:12:15.866Z,12.74
2023-05-18T21:14:43.661Z,12.71
2023-05-18T21:17:11.827Z,12.69
2023-05-18T21:19:39.657Z,12.64
2023-05-18T21:22:07.438Z,12.60
2023-05-18T21:24:35.342Z,12.67
2023-05-18T21:27:04.890Z,12.54
2023-05-18T21:29:32.562Z,12.46
2023-05-18T21:32:00.514Z,12.48
2023-05-18T21:34:28.298Z,12.45
2023-05-18T21:36:56.648Z,12.32
2023-05-18T21:39:24.425Z,12.29
2023-05-18T21:41:52.524Z,12.20
2023-05-18T21:44:21.997Z,12.06
2023-05-18T21:46:55.105Z,11.97
2023-05-18T21:49:22.801Z,11.90
2023-05-18T21:51:50.952Z,11.79
2023-05-18T21:54:19.146Z,11.70
2023-05-18T21:56:47.305Z,11.55
2023-05-18T21:59:15.122Z,11.54
2023-05-18T22:01:44.423Z,11.48
2023-05-18T22:04:12.495Z,11.40
2023-05-18T22:06:40.354Z,11.39
2023-05-18T22:09:07.932Z,11.30
2023-05-18T22:11:36.332Z,11.29
2023-05-18T22:14:04.006Z,11.24
2023-05-18T22:16:31.929Z,11.14
2023-05-18T22:19:00.972Z,11.05
2023-05-18T22:21:28.669Z,11.08
2023-05-18T22:23:56.526Z,11.02
2023-05-18T22:26:24.522Z,10.91
2023-05-18T22:28:52.435Z,10.95
2023-05-18T22:31:20.691Z,10.88
2023-05-18T22:33:48.803Z,10.83
2023-05-18T22:36:18.259Z,10.80
2023-05-18T22:38:46.052Z,10.69
2023-05-18T22:41:13.926Z,10.64
2023-05-18T22:43:41.662Z,10.66
2023-05-18T22:46:09.895Z,10.76
2023-05-18T22:48:38.431Z,10.73
2023-05-18T22:51:06.447Z,10.72
2023-05-18T22:53:35.811Z,10.67
2023-05-18T22:56:03.721Z,10.64
2023-05-18T22:58:31.498Z,10.64
2023-05-18T23:00:59.381Z,10.58
2023-05-18T23:03:27.359Z,10.56
2023-05-18T23:05:55.405Z,10.53
2023-05-18T23:08:23.857Z,10.53
2023-05-18T23:10:53.808Z,10.47
2023-05-18T23:13:22.606Z,10.40
2023-05-18T23:15:50.929Z,10.37
2023-05-18T23:18:19.105Z,10.40
2023-05-18T23:20:46.854Z,10.44
2023-05-18T23:23:14.726Z,10.36
2023-05-18T23:25:42.573Z,10.31
2023-05-18T23:28:12.068Z,10.26
2023-05-18T23:30:39.889Z,10.27
2023-05-18T23:33:07.971Z,10.23
2023-05-18T23:35:36.392Z,10.24
2023-05-18T23:38:06.415Z,10.23
2023-05-18T23:40:34.777Z,10.17
2023-05-18T23:43:02.950Z,10.16
2023-05-18T23:45:32.552Z,10.10
2023-05-18T23:48:00.860Z,10.09
2023-05-18T23:50:29.329Z,10.07
2023-05-18T23:53:01.067Z,10.05
2023-05-18T23:55:29.284Z,10.02
2023-05-18T23:57:57.676Z,10.01
